sensor_id;sensor_type;location;lat;lon;timestamp;P1;durP1;ratioP1;P2;durP2;ratioP2
64710;SDS011;51139;45.626;6.850;2023-07-22T00:00:57;5.63;;;3.30;;
64710;SDS011;51139;45.626;6.850;2023-07-22T00:03:22;3.80;;;3.03;;
64710;SDS011;51139;45.626;6.850;2023-07-22T00:05:48;5.10;;;3.30;;
64710;SDS011;51139;45.626;6.850;2023-07-22T00:08:14;7.95;;;3.42;;
64710;SDS011;51139;45.626;6.850;2023-07-22T00:10:42;7.18;;;3.15;;
64710;SDS011;51139;45.626;6.850;2023-07-22T00:13:08;4.75;;;3.40;;
64710;SDS011;51139;45.626;6.850;2023-07-22T00:15:33;4.85;;;3.33;;
64710;SDS011;51139;45.626;6.850;2023-07-22T00:17:58;5.97;;;3.47;;
64710;SDS011;51139;45.626;6.850;2023-07-22T00:20:24;6.03;;;3.75;;
64710;SDS011;51139;45.626;6.850;2023-07-22T00:22:50;6.30;;;3.33;;
64710;SDS011;51139;45.626;6.850;2023-07-22T00:25:17;6.35;;;3.53;;
64710;SDS011;51139;45.626;6.850;2023-07-22T00:27:42;6.28;;;3.55;;
64710;SDS011;51139;45.626;6.850;2023-07-22T00:30:08;5.00;;;3.38;;
64710;SDS011;51139;45.626;6.850;2023-07-22T00:32:34;6.88;;;3.53;;
64710;SDS011;51139;45.626;6.850;2023-07-22T00:35:02;5.70;;;3.60;;
64710;SDS011;51139;45.626;6.850;2023-07-22T00:37:30;5.57;;;3.47;;
64710;SDS011;51139;45.626;6.850;2023-07-22T00:39:56;5.55;;;3.50;;
64710;SDS011;51139;45.626;6.850;2023-07-22T00:42:21;6.78;;;3.45;;
64710;SDS011;51139;45.626;6.850;2023-07-22T00:44:46;6.05;;;3.75;;
64710;SDS011;51139;45.626;6.850;2023-07-22T00:47:12;5.68;;;3.80;;
64710;SDS011;51139;45.626;6.850;2023-07-22T00:49:37;6.10;;;3.60;;
64710;SDS011;51139;45.626;6.850;2023-07-22T00:52:04;5.32;;;3.40;;
64710;SDS011;51139;45.626;6.850;2023-07-22T00:54:30;5.30;;;3.67;;
64710;SDS011;51139;45.626;6.850;2023-07-22T00:56:56;6.00;;;3.13;;
64710;SDS011;51139;45.626;6.850;2023-07-22T00:59:22;5.60;;;3.10;;
64710;SDS011;51139;45.626;6.850;2023-07-22T01:01:48;6.32;;;3.67;;
64710;SDS011;51139;45.626;6.850;2023-07-22T01:04:14;7.50;;;3.83;;
64710;SDS011;51139;45.626;6.850;2023-07-22T01:06:43;6.53;;;3.45;;
64710;SDS011;51139;45.626;6.850;2023-07-22T01:09:09;5.43;;;3.00;;
64710;SDS011;51139;45.626;6.850;2023-07-22T01:11:35;5.10;;;3.63;;
64710;SDS011;51139;45.626;6.850;2023-07-22T01:14:00;4.53;;;3.05;;
64710;SDS011;51139;45.626;6.850;2023-07-22T01:16:27;5.82;;;3.47;;
64710;SDS011;51139;45.626;6.850;2023-07-22T01:18:53;6.45;;;3.20;;
64710;SDS011;51139;45.626;6.850;2023-07-22T01:21:19;5.63;;;3.55;;
64710;SDS011;51139;45.626;6.850;2023-07-22T01:23:47;5.72;;;3.40;;
64710;SDS011;51139;45.626;6.850;2023-07-22T01:26:13;7.10;;;3.53;;
64710;SDS011;51139;45.626;6.850;2023-07-22T01:28:38;5.57;;;3.40;;
64710;SDS011;51139;45.626;6.850;2023-07-22T01:31:04;5.88;;;3.55;;
64710;SDS011;51139;45.626;6.850;2023-07-22T01:33:30;5.18;;;3.45;;
64710;SDS011;51139;45.626;6.850;2023-07-22T01:35:56;7.40;;;4.00;;
64710;SDS011;51139;45.626;6.850;2023-07-22T01:38:22;6.35;;;3.45;;
64710;SDS011;51139;45.626;6.850;2023-07-22T01:40:47;5.10;;;3.30;;
64710;SDS011;51139;45.626;6.850;2023-07-22T01:43:12;5.43;;;3.33;;
64710;SDS011;51139;45.626;6.850;2023-07-22T01:45:38;6.70;;;4.13;;
64710;SDS011;51139;45.626;6.850;2023-07-22T01:48:04;5.97;;;3.88;;
64710;SDS011;51139;45.626;6.850;2023-07-22T01:50:31;5.93;;;3.88;;
64710;SDS011;51139;45.626;6.850;2023-07-22T01:52:56;6.22;;;3.42;;
64710;SDS011;51139;45.626;6.850;2023-07-22T01:55:22;5.63;;;3.55;;
64710;SDS011;51139;45.626;6.850;2023-07-22T01:57:47;6.97;;;3.88;;
64710;SDS011;51139;45.626;6.850;2023-07-22T02:00:12;7.78;;;3.83;;
64710;SDS011;51139;45.626;6.850;2023-07-22T02:02:40;7.93;;;3.83;;
64710;SDS011;51139;45.626;6.850;2023-07-22T02:05:06;5.55;;;3.50;;
64710;SDS011;51139;45.626;6.850;2023-07-22T02:07:33;5.47;;;3.55;;
64710;SDS011;51139;45.626;6.850;2023-07-22T02:09:59;6.20;;;3.95;;
64710;SDS011;51139;45.626;6.850;2023-07-22T02:12:24;5.65;;;3.50;;
64710;SDS011;51139;45.626;6.850;2023-07-22T02:14:49;6.65;;;3.42;;
64710;SDS011;51139;45.626;6.850;2023-07-22T02:17:15;6.07;;;3.58;;
64710;SDS011;51139;45.626;6.850;2023-07-22T02:19:40;4.57;;;3.28;;
64710;SDS011;51139;45.626;6.850;2023-07-22T02:22:05;6.00;;;3.63;;
64710;SDS011;51139;45.626;6.850;2023-07-22T02:24:31;6.07;;;3.45;;
64710;SDS011;51139;45.626;6.850;2023-07-22T02:26:56;5.47;;;3.97;;
64710;SDS011;51139;45.626;6.850;2023-07-22T02:29:22;8.57;;;4.10;;
64710;SDS011;51139;45.626;6.850;2023-07-22T02:31:47;5.53;;;3.88;;
64710;SDS011;51139;45.626;6.850;2023-07-22T02:34:13;6.82;;;3.70;;
64710;SDS011;51139;45.626;6.850;2023-07-22T02:36:38;6.03;;;3.70;;
64710;SDS011;51139;45.626;6.850;2023-07-22T02:39:03;9.93;;;3.83;;
64710;SDS011;51139;45.626;6.850;2023-07-22T02:41:29;7.22;;;4.13;;
64710;SDS011;51139;45.626;6.850;2023-07-22T02:43:54;8.05;;;4.00;;
64710;SDS011;51139;45.626;6.850;2023-07-22T02:46:19;6.32;;;3.83;;
64710;SDS011;51139;45.626;6.850;2023-07-22T02:48:45;6.53;;;3.75;;
64710;SDS011;51139;45.626;6.850;2023-07-22T02:51:10;7.68;;;3.90;;
64710;SDS011;51139;45.626;6.850;2023-07-22T02:53:36;7.05;;;4.00;;
64710;SDS011;51139;45.626;6.850;2023-07-22T02:56:02;8.63;;;3.85;;
64710;SDS011;51139;45.626;6.850;2023-07-22T02:58:29;8.40;;;4.20;;
64710;SDS011;51139;45.626;6.850;2023-07-22T03:00:54;8.90;;;3.97;;
64710;SDS011;51139;45.626;6.850;2023-07-22T03:03:19;6.10;;;3.50;;
64710;SDS011;51139;45.626;6.850;2023-07-22T03:05:45;7.15;;;3.65;;
64710;SDS011;51139;45.626;6.850;2023-07-22T03:08:10;5.45;;;3.92;;
64710;SDS011;51139;45.626;6.850;2023-07-22T03:10:36;7.35;;;3.90;;
64710;SDS011;51139;45.626;6.850;2023-07-22T03:13:01;7.05;;;3.78;;
64710;SDS011;51139;45.626;6.850;2023-07-22T03:15:28;6.60;;;3.80;;
64710;SDS011;51139;45.626;6.850;2023-07-22T03:17:54;6.18;;;3.25;;
64710;SDS011;51139;45.626;6.850;2023-07-22T03:20:26;8.23;;;3.83;;
64710;SDS011;51139;45.626;6.850;2023-07-22T03:22:52;6.68;;;3.53;;
64710;SDS011;51139;45.626;6.850;2023-07-22T03:25:17;6.45;;;3.35;;
64710;SDS011;51139;45.626;6.850;2023-07-22T03:27:43;6.15;;;3.83;;
64710;SDS011;51139;45.626;6.850;2023-07-22T03:30:11;5.93;;;3.78;;
64710;SDS011;51139;45.626;6.850;2023-07-22T03:32:46;9.13;;;3.80;;
64710;SDS011;51139;45.626;6.850;2023-07-22T03:35:12;5.15;;;3.50;;
64710;SDS011;51139;45.626;6.850;2023-07-22T03:37:38;6.72;;;4.18;;
64710;SDS011;51139;45.626;6.850;2023-07-22T03:40:05;7.40;;;4.07;;
64710;SDS011;51139;45.626;6.850;2023-07-22T03:42:33;6.47;;;3.90;;
64710;SDS011;51139;45.626;6.850;2023-07-22T03:44:59;6.18;;;4.03;;
64710;SDS011;51139;45.626;6.850;2023-07-22T03:47:24;7.05;;;3.70;;
64710;SDS011;51139;45.626;6.850;2023-07-22T03:49:50;6.05;;;3.72;;
64710;SDS011;51139;45.626;6.850;2023-07-22T03:52:15;8.20;;;3.80;;
64710;SDS011;51139;45.626;6.850;2023-07-22T03:54:43;7.28;;;3.90;;
64710;SDS011;51139;45.626;6.850;2023-07-22T03:57:09;5.88;;;3.65;;
64710;SDS011;51139;45.626;6.850;2023-07-22T03:59:34;6.45;;;3.67;;
64710;SDS011;51139;45.626;6.850;2023-07-22T04:01:59;6.40;;;3.53;;
64710;SDS011;51139;45.626;6.850;2023-07-22T04:04:25;6.10;;;3.95;;
64710;SDS011;51139;45.626;6.850;2023-07-22T04:06:50;7.35;;;3.70;;
64710;SDS011;51139;45.626;6.850;2023-07-22T04:09:15;5.25;;;3.30;;
64710;SDS011;51139;45.626;6.850;2023-07-22T04:11:41;4.93;;;3.47;;
64710;SDS011;51139;45.626;6.850;2023-07-22T04:14:06;6.35;;;3.58;;
64710;SDS011;51139;45.626;6.850;2023-07-22T04:16:31;8.25;;;4.45;;
64710;SDS011;51139;45.626;6.850;2023-07-22T04:18:57;6.53;;;3.92;;
64710;SDS011;51139;45.626;6.850;2023-07-22T04:21:22;7.15;;;3.53;;
64710;SDS011;51139;45.626;6.850;2023-07-22T04:23:47;6.22;;;3.70;;
64710;SDS011;51139;45.626;6.850;2023-07-22T04:26:14;5.13;;;3.40;;
64710;SDS011;51139;45.626;6.850;2023-07-22T04:28:39;5.15;;;3.25;;
64710;SDS011;51139;45.626;6.850;2023-07-22T04:31:05;6.68;;;3.40;;
64710;SDS011;51139;45.626;6.850;2023-07-22T04:33:30;5.07;;;3.20;;
64710;SDS011;51139;45.626;6.850;2023-07-22T04:35:57;6.50;;;3.97;;
64710;SDS011;51139;45.626;6.850;2023-07-22T04:38:23;6.95;;;3.92;;
64710;SDS011;51139;45.626;6.850;2023-07-22T04:40:49;6.97;;;4.13;;
64710;SDS011;51139;45.626;6.850;2023-07-22T04:43:14;6.15;;;4.00;;
64710;SDS011;51139;45.626;6.850;2023-07-22T04:45:40;6.93;;;4.10;;
64710;SDS011;51139;45.626;6.850;2023-07-22T04:48:05;6.07;;;3.53;;
64710;SDS011;51139;45.626;6.850;2023-07-22T04:50:31;8.73;;;4.53;;
64710;SDS011;51139;45.626;6.850;2023-07-22T04:52:56;6.65;;;4.07;;
64710;SDS011;51139;45.626;6.850;2023-07-22T04:55:22;5.75;;;3.85;;
64710;SDS011;51139;45.626;6.850;2023-07-22T04:57:47;5.80;;;3.65;;
64710;SDS011;51139;45.626;6.850;2023-07-22T05:00:13;6.20;;;4.00;;
64710;SDS011;51139;45.626;6.850;2023-07-22T05:02:41;8.75;;;4.60;;
64710;SDS011;51139;45.626;6.850;2023-07-22T05:05:10;8.45;;;4.20;;
64710;SDS011;51139;45.626;6.850;2023-07-22T05:07:36;7.32;;;3.80;;
64710;SDS011;51139;45.626;6.850;2023-07-22T05:10:01;7.25;;;4.07;;
64710;SDS011;51139;45.626;6.850;2023-07-22T05:12:27;8.18;;;4.30;;
64710;SDS011;51139;45.626;6.850;2023-07-22T05:14:52;9.43;;;4.07;;
64710;SDS011;51139;45.626;6.850;2023-07-22T05:17:17;7.10;;;4.15;;
64710;SDS011;51139;45.626;6.850;2023-07-22T05:19:43;6.40;;;4.25;;
64710;SDS011;51139;45.626;6.850;2023-07-22T05:22:08;9.45;;;4.10;;
64710;SDS011;51139;45.626;6.850;2023-07-22T05:24:34;7.75;;;4.30;;
64710;SDS011;51139;45.626;6.850;2023-07-22T05:26:59;6.82;;;4.22;;
64710;SDS011;51139;45.626;6.850;2023-07-22T05:29:24;6.95;;;3.88;;
64710;SDS011;51139;45.626;6.850;2023-07-22T05:31:50;7.00;;;3.85;;
64710;SDS011;51139;45.626;6.850;2023-07-22T05:34:15;7.30;;;3.90;;
64710;SDS011;51139;45.626;6.850;2023-07-22T05:36:41;5.78;;;3.80;;
64710;SDS011;51139;45.626;6.850;2023-07-22T05:39:06;6.95;;;4.13;;
64710;SDS011;51139;45.626;6.850;2023-07-22T05:41:34;5.70;;;3.80;;
64710;SDS011;51139;45.626;6.850;2023-07-22T05:44:00;7.10;;;4.00;;
64710;SDS011;51139;45.626;6.850;2023-07-22T05:46:25;8.13;;;4.20;;
64710;SDS011;51139;45.626;6.850;2023-07-22T05:48:51;8.00;;;4.53;;
64710;SDS011;51139;45.626;6.850;2023-07-22T05:51:17;6.88;;;4.10;;
64710;SDS011;51139;45.626;6.850;2023-07-22T05:53:42;6.70;;;4.20;;
64710;SDS011;51139;45.626;6.850;2023-07-22T05:56:07;5.85;;;3.53;;
64710;SDS011;51139;45.626;6.850;2023-07-22T05:58:33;6.30;;;4.28;;
64710;SDS011;51139;45.626;6.850;2023-07-22T06:00:59;7.93;;;4.00;;
64710;SDS011;51139;45.626;6.850;2023-07-22T06:03:24;6.22;;;3.97;;
64710;SDS011;51139;45.626;6.850;2023-07-22T06:05:50;7.85;;;4.05;;
64710;SDS011;51139;45.626;6.850;2023-07-22T06:08:15;6.88;;;3.90;;
64710;SDS011;51139;45.626;6.850;2023-07-22T06:10:40;8.43;;;4.30;;
64710;SDS011;51139;45.626;6.850;2023-07-22T06:13:06;6.40;;;4.20;;
64710;SDS011;51139;45.626;6.850;2023-07-22T06:15:31;8.38;;;4.35;;
64710;SDS011;51139;45.626;6.850;2023-07-22T06:17:57;7.20;;;4.35;;
64710;SDS011;51139;45.626;6.850;2023-07-22T06:20:22;6.15;;;3.88;;
64710;SDS011;51139;45.626;6.850;2023-07-22T06:22:48;7.10;;;4.18;;
64710;SDS011;51139;45.626;6.850;2023-07-22T06:25:13;6.20;;;3.70;;
64710;SDS011;51139;45.626;6.850;2023-07-22T06:27:38;8.23;;;4.35;;
64710;SDS011;51139;45.626;6.850;2023-07-22T06:30:04;7.32;;;4.78;;
64710;SDS011;51139;45.626;6.850;2023-07-22T06:32:30;6.00;;;3.88;;
64710;SDS011;51139;45.626;6.850;2023-07-22T06:34:58;7.50;;;3.83;;
64710;SDS011;51139;45.626;6.850;2023-07-22T06:37:24;8.27;;;3.88;;
64710;SDS011;51139;45.626;6.850;2023-07-22T06:39:49;8.18;;;4.25;;
64710;SDS011;51139;45.626;6.850;2023-07-22T06:42:15;6.32;;;4.05;;
64710;SDS011;51139;45.626;6.850;2023-07-22T06:44:40;8.57;;;4.50;;
64710;SDS011;51139;45.626;6.850;2023-07-22T06:47:06;6.88;;;4.07;;
64710;SDS011;51139;45.626;6.850;2023-07-22T06:49:32;7.20;;;4.10;;
64710;SDS011;51139;45.626;6.850;2023-07-22T06:51:57;9.88;;;4.28;;
64710;SDS011;51139;45.626;6.850;2023-07-22T06:54:23;7.97;;;4.10;;
64710;SDS011;51139;45.626;6.850;2023-07-22T06:56:48;6.93;;;3.90;;
64710;SDS011;51139;45.626;6.850;2023-07-22T06:59:13;7.15;;;4.07;;
64710;SDS011;51139;45.626;6.850;2023-07-22T07:01:39;7.13;;;4.05;;
64710;SDS011;51139;45.626;6.850;2023-07-22T07:04:04;6.03;;;3.85;;
64710;SDS011;51139;45.626;6.850;2023-07-22T07:06:30;7.22;;;4.25;;
64710;SDS011;51139;45.626;6.850;2023-07-22T07:08:58;7.28;;;4.40;;
64710;SDS011;51139;45.626;6.850;2023-07-22T07:11:25;7.60;;;4.20;;
64710;SDS011;51139;45.626;6.850;2023-07-22T07:13:50;8.85;;;4.20;;
64710;SDS011;51139;45.626;6.850;2023-07-22T07:16:22;6.70;;;4.07;;
64710;SDS011;51139;45.626;6.850;2023-07-22T07:18:52;5.97;;;3.78;;
64710;SDS011;51139;45.626;6.850;2023-07-22T07:21:19;7.10;;;4.03;;
64710;SDS011;51139;45.626;6.850;2023-07-22T07:23:44;6.22;;;3.40;;
64710;SDS011;51139;45.626;6.850;2023-07-22T07:26:10;9.73;;;4.35;;
64710;SDS011;51139;45.626;6.850;2023-07-22T07:28:36;7.25;;;3.95;;
64710;SDS011;51139;45.626;6.850;2023-07-22T07:31:02;7.60;;;4.20;;
64710;SDS011;51139;45.626;6.850;2023-07-22T07:33:27;5.80;;;3.55;;
64710;SDS011;51139;45.626;6.850;2023-07-22T07:35:53;6.75;;;4.10;;
64710;SDS011;51139;45.626;6.850;2023-07-22T07:38:18;9.10;;;4.35;;
64710;SDS011;51139;45.626;6.850;2023-07-22T07:40:44;6.88;;;3.72;;
64710;SDS011;51139;45.626;6.850;2023-07-22T07:43:09;8.02;;;4.22;;
64710;SDS011;51139;45.626;6.850;2023-07-22T07:45:38;7.72;;;3.80;;
64710;SDS011;51139;45.626;6.850;2023-07-22T07:48:04;7.90;;;4.18;;
64710;SDS011;51139;45.626;6.850;2023-07-22T07:50:30;6.65;;;4.10;;
64710;SDS011;51139;45.626;6.850;2023-07-22T07:52:56;5.88;;;3.67;;
64710;SDS011;51139;45.626;6.850;2023-07-22T07:55:22;7.32;;;4.00;;
64710;SDS011;51139;45.626;6.850;2023-07-22T07:57:47;5.60;;;3.63;;
64710;SDS011;51139;45.626;6.850;2023-07-22T08:00:13;6.15;;;3.90;;
64710;SDS011;51139;45.626;6.850;2023-07-22T08:02:38;6.53;;;3.90;;
64710;SDS011;51139;45.626;6.850;2023-07-22T08:05:04;9.27;;;3.88;;
64710;SDS011;51139;45.626;6.850;2023-07-22T08:07:30;5.55;;;3.50;;
64710;SDS011;51139;45.626;6.850;2023-07-22T08:09:55;6.32;;;3.80;;
64710;SDS011;51139;45.626;6.850;2023-07-22T08:12:22;5.53;;;3.72;;
64710;SDS011;51139;45.626;6.850;2023-07-22T08:14:48;6.30;;;3.72;;
64710;SDS011;51139;45.626;6.850;2023-07-22T08:17:13;8.23;;;4.22;;
64710;SDS011;51139;45.626;6.850;2023-07-22T08:19:39;7.65;;;3.90;;
64710;SDS011;51139;45.626;6.850;2023-07-22T08:22:04;6.20;;;3.70;;
64710;SDS011;51139;45.626;6.850;2023-07-22T08:24:29;8.88;;;3.80;;
64710;SDS011;51139;45.626;6.850;2023-07-22T08:26:55;6.88;;;3.92;;
64710;SDS011;51139;45.626;6.850;2023-07-22T08:29:20;5.60;;;3.67;;
64710;SDS011;51139;45.626;6.850;2023-07-22T08:31:45;6.70;;;3.80;;
64710;SDS011;51139;45.626;6.850;2023-07-22T08:34:11;7.47;;;4.03;;
64710;SDS011;51139;45.626;6.850;2023-07-22T08:36:36;6.00;;;3.92;;
64710;SDS011;51139;45.626;6.850;2023-07-22T08:39:01;5.90;;;3.38;;
64710;SDS011;51139;45.626;6.850;2023-07-22T08:41:28;7.85;;;3.63;;
64710;SDS011;51139;45.626;6.850;2023-07-22T08:43:54;6.43;;;3.70;;
64710;SDS011;51139;45.626;6.850;2023-07-22T08:46:24;5.25;;;3.22;;
64710;SDS011;51139;45.626;6.850;2023-07-22T08:48:54;5.60;;;3.40;;
64710;SDS011;51139;45.626;6.850;2023-07-22T08:51:23;7.07;;;3.45;;
64710;SDS011;51139;45.626;6.850;2023-07-22T08:53:53;7.53;;;3.63;;
64710;SDS011;51139;45.626;6.850;2023-07-22T08:56:22;6.97;;;4.00;;
64710;SDS011;51139;45.626;6.850;2023-07-22T08:58:48;6.00;;;3.67;;
64710;SDS011;51139;45.626;6.850;2023-07-22T09:01:16;6.32;;;3.55;;
64710;SDS011;51139;45.626;6.850;2023-07-22T09:03:41;6.18;;;3.45;;
64710;SDS011;51139;45.626;6.850;2023-07-22T09:06:07;6.13;;;3.30;;
64710;SDS011;51139;45.626;6.850;2023-07-22T09:08:33;6.05;;;3.28;;
64710;SDS011;51139;45.626;6.850;2023-07-22T09:10:59;6.35;;;3.40;;
64710;SDS011;51139;45.626;6.850;2023-07-22T09:13:25;5.80;;;3.70;;
64710;SDS011;51139;45.626;6.850;2023-07-22T09:15:51;5.07;;;3.08;;
64710;SDS011;51139;45.626;6.850;2023-07-22T09:18:18;5.80;;;3.03;;
64710;SDS011;51139;45.626;6.850;2023-07-22T09:20:43;5.93;;;3.15;;
64710;SDS011;51139;45.626;6.850;2023-07-22T09:23:08;6.50;;;3.05;;
64710;SDS011;51139;45.626;6.850;2023-07-22T09:25:34;6.40;;;2.95;;
64710;SDS011;51139;45.626;6.850;2023-07-22T09:27:59;5.18;;;3.33;;
64710;SDS011;51139;45.626;6.850;2023-07-22T09:32:51;4.03;;;2.80;;
64710;SDS011;51139;45.626;6.850;2023-07-22T09:35:17;4.38;;;2.90;;
64710;SDS011;51139;45.626;6.850;2023-07-22T09:37:43;4.93;;;3.00;;
64710;SDS011;51139;45.626;6.850;2023-07-22T09:40:16;4.50;;;2.60;;
64710;SDS011;51139;45.626;6.850;2023-07-22T09:42:46;4.38;;;2.80;;
64710;SDS011;51139;45.626;6.850;2023-07-22T09:45:13;4.88;;;2.72;;
64710;SDS011;51139;45.626;6.850;2023-07-22T09:47:45;5.35;;;2.85;;
64710;SDS011;51139;45.626;6.850;2023-07-22T09:50:19;5.15;;;2.63;;
64710;SDS011;51139;45.626;6.850;2023-07-22T09:52:53;5.45;;;2.90;;
64710;SDS011;51139;45.626;6.850;2023-07-22T09:55:21;5.47;;;2.90;;
64710;SDS011;51139;45.626;6.850;2023-07-22T09:57:52;3.63;;;2.15;;
64710;SDS011;51139;45.626;6.850;2023-07-22T10:00:19;4.18;;;2.35;;
64710;SDS011;51139;45.626;6.850;2023-07-22T10:02:46;5.50;;;2.50;;
64710;SDS011;51139;45.626;6.850;2023-07-22T10:05:24;3.90;;;2.20;;
64710;SDS011;51139;45.626;6.850;2023-07-22T10:07:55;3.80;;;2.70;;
64710;SDS011;51139;45.626;6.850;2023-07-22T10:13:10;4.90;;;2.58;;
64710;SDS011;51139;45.626;6.850;2023-07-22T10:15:36;4.97;;;3.08;;
64710;SDS011;51139;45.626;6.850;2023-07-22T10:18:02;4.47;;;3.00;;
64710;SDS011;51139;45.626;6.850;2023-07-22T10:20:30;5.10;;;2.97;;
64710;SDS011;51139;45.626;6.850;2023-07-22T10:22:59;3.85;;;2.60;;
64710;SDS011;51139;45.626;6.850;2023-07-22T10:25:25;3.45;;;2.33;;
64710;SDS011;51139;45.626;6.850;2023-07-22T10:27:51;4.18;;;2.40;;
64710;SDS011;51139;45.626;6.850;2023-07-22T10:30:18;4.10;;;2.30;;
64710;SDS011;51139;45.626;6.850;2023-07-22T10:32:45;4.63;;;2.50;;
64710;SDS011;51139;45.626;6.850;2023-07-22T10:35:22;3.72;;;2.58;;
64710;SDS011;51139;45.626;6.850;2023-07-22T10:38:08;3.45;;;2.20;;
64710;SDS011;51139;45.626;6.850;2023-07-22T10:40:50;3.75;;;2.47;;
64710;SDS011;51139;45.626;6.850;2023-07-22T10:43:18;3.97;;;2.58;;
64710;SDS011;51139;45.626;6.850;2023-07-22T10:45:49;3.72;;;2.10;;
64710;SDS011;51139;45.626;6.850;2023-07-22T10:48:17;3.53;;;2.03;;
64710;SDS011;51139;45.626;6.850;2023-07-22T10:50:43;3.55;;;2.40;;
64710;SDS011;51139;45.626;6.850;2023-07-22T10:53:37;3.33;;;2.22;;
64710;SDS011;51139;45.626;6.850;2023-07-22T11:14:25;4.30;;;2.72;;
64710;SDS011;51139;45.626;6.850;2023-07-22T11:16:52;4.63;;;2.55;;
64710;SDS011;51139;45.626;6.850;2023-07-22T11:19:21;3.70;;;2.22;;
64710;SDS011;51139;45.626;6.850;2023-07-22T11:21:49;4.85;;;2.75;;
64710;SDS011;51139;45.626;6.850;2023-07-22T11:24:15;3.05;;;2.10;;
64710;SDS011;51139;45.626;6.850;2023-07-22T11:26:41;2.95;;;2.10;;
64710;SDS011;51139;45.626;6.850;2023-07-22T11:29:08;6.30;;;2.40;;
64710;SDS011;51139;45.626;6.850;2023-07-22T11:31:35;3.10;;;2.00;;
64710;SDS011;51139;45.626;6.850;2023-07-22T11:34:05;3.85;;;1.90;;
64710;SDS011;51139;45.626;6.850;2023-07-22T11:36:31;5.32;;;2.30;;
64710;SDS011;51139;45.626;6.850;2023-07-22T11:39:03;4.30;;;2.00;;
64710;SDS011;51139;45.626;6.850;2023-07-22T11:41:30;2.47;;;1.50;;
64710;SDS011;51139;45.626;6.850;2023-07-22T11:43:57;2.92;;;1.83;;
64710;SDS011;51139;45.626;6.850;2023-07-22T11:46:23;3.03;;;1.85;;
64710;SDS011;51139;45.626;6.850;2023-07-22T11:48:52;3.17;;;1.80;;
64710;SDS011;51139;45.626;6.850;2023-07-22T11:51:20;4.40;;;2.60;;
64710;SDS011;51139;45.626;6.850;2023-07-22T11:53:47;4.00;;;2.00;;
64710;SDS011;51139;45.626;6.850;2023-07-22T11:56:17;4.65;;;1.90;;
64710;SDS011;51139;45.626;6.850;2023-07-22T11:58:43;3.35;;;2.15;;
64710;SDS011;51139;45.626;6.850;2023-07-22T12:01:13;3.00;;;2.05;;
64710;SDS011;51139;45.626;6.850;2023-07-22T12:03:40;3.30;;;2.20;;
64710;SDS011;51139;45.626;6.850;2023-07-22T12:06:06;3.40;;;1.95;;
64710;SDS011;51139;45.626;6.850;2023-07-22T12:08:35;3.65;;;2.22;;
64710;SDS011;51139;45.626;6.850;2023-07-22T12:11:01;3.20;;;1.98;;
64710;SDS011;51139;45.626;6.850;2023-07-22T12:13:27;2.60;;;1.85;;
64710;SDS011;51139;45.626;6.850;2023-07-22T12:16:02;4.55;;;2.13;;
64710;SDS011;51139;45.626;6.850;2023-07-22T12:18:45;3.58;;;1.95;;
64710;SDS011;51139;45.626;6.850;2023-07-22T12:21:12;3.40;;;2.00;;
64710;SDS011;51139;45.626;6.850;2023-07-22T12:23:38;3.25;;;2.03;;
64710;SDS011;51139;45.626;6.850;2023-07-22T12:26:04;4.45;;;2.10;;
64710;SDS011;51139;45.626;6.850;2023-07-22T12:28:30;3.53;;;2.35;;
64710;SDS011;51139;45.626;6.850;2023-07-22T12:30:55;3.22;;;1.70;;
64710;SDS011;51139;45.626;6.850;2023-07-22T12:33:22;6.43;;;3.70;;
64710;SDS011;51139;45.626;6.850;2023-07-22T12:35:49;3.30;;;1.85;;
64710;SDS011;51139;45.626;6.850;2023-07-22T12:38:14;3.20;;;1.90;;
64710;SDS011;51139;45.626;6.850;2023-07-22T12:40:40;3.67;;;2.17;;
64710;SDS011;51139;45.626;6.850;2023-07-22T12:43:05;5.00;;;2.10;;
64710;SDS011;51139;45.626;6.850;2023-07-22T12:45:30;3.65;;;2.00;;
64710;SDS011;51139;45.626;6.850;2023-07-22T12:47:56;3.65;;;2.00;;
64710;SDS011;51139;45.626;6.850;2023-07-22T12:50:21;3.20;;;2.05;;
64710;SDS011;51139;45.626;6.850;2023-07-22T12:52:47;4.05;;;2.47;;
64710;SDS011;51139;45.626;6.850;2023-07-22T12:55:12;6.85;;;3.47;;
64710;SDS011;51139;45.626;6.850;2023-07-22T12:57:38;3.22;;;1.80;;
64710;SDS011;51139;45.626;6.850;2023-07-22T13:00:03;4.28;;;2.53;;
64710;SDS011;51139;45.626;6.850;2023-07-22T13:04:59;3.47;;;1.70;;
64710;SDS011;51139;45.626;6.850;2023-07-22T13:07:24;2.72;;;1.63;;
64710;SDS011;51139;45.626;6.850;2023-07-22T13:09:50;3.13;;;1.60;;
64710;SDS011;51139;45.626;6.850;2023-07-22T13:12:18;2.42;;;1.40;;
64710;SDS011;51139;45.626;6.850;2023-07-22T13:14:43;3.13;;;1.63;;
64710;SDS011;51139;45.626;6.850;2023-07-22T13:17:08;2.63;;;1.73;;
64710;SDS011;51139;45.626;6.850;2023-07-22T13:19:34;2.85;;;1.67;;
64710;SDS011;51139;45.626;6.850;2023-07-22T13:21:59;3.13;;;1.90;;
64710;SDS011;51139;45.626;6.850;2023-07-22T13:24:24;4.38;;;1.80;;
64710;SDS011;51139;45.626;6.850;2023-07-22T13:26:50;3.13;;;1.60;;
64710;SDS011;51139;45.626;6.850;2023-07-22T13:29:15;2.80;;;1.60;;
64710;SDS011;51139;45.626;6.850;2023-07-22T13:31:40;3.40;;;1.98;;
64710;SDS011;51139;45.626;6.850;2023-07-22T13:34:06;3.40;;;2.00;;
64710;SDS011;51139;45.626;6.850;2023-07-22T13:36:31;3.90;;;1.90;;
64710;SDS011;51139;45.626;6.850;2023-07-22T13:38:56;2.70;;;1.65;;
64710;SDS011;51139;45.626;6.850;2023-07-22T13:41:22;3.58;;;1.90;;
64710;SDS011;51139;45.626;6.850;2023-07-22T13:43:47;3.25;;;1.98;;
64710;SDS011;51139;45.626;6.850;2023-07-22T13:46:12;4.07;;;2.17;;
64710;SDS011;51139;45.626;6.850;2023-07-22T13:48:37;3.80;;;2.30;;
64710;SDS011;51139;45.626;6.850;2023-07-22T13:51:03;3.90;;;2.20;;
64710;SDS011;51139;45.626;6.850;2023-07-22T13:53:28;4.00;;;2.38;;
64710;SDS011;51139;45.626;6.850;2023-07-22T13:55:53;4.93;;;2.20;;
64710;SDS011;51139;45.626;6.850;2023-07-22T13:58:19;2.83;;;1.83;;
64710;SDS011;51139;45.626;6.850;2023-07-22T14:00:44;3.72;;;2.17;;
64710;SDS011;51139;45.626;6.850;2023-07-22T14:03:10;3.03;;;1.90;;
64710;SDS011;51139;45.626;6.850;2023-07-22T14:05:35;5.65;;;2.10;;
64710;SDS011;51139;45.626;6.850;2023-07-22T14:08:01;3.40;;;2.00;;
64710;SDS011;51139;45.626;6.850;2023-07-22T14:10:26;2.95;;;2.10;;
64710;SDS011;51139;45.626;6.850;2023-07-22T14:12:51;3.10;;;2.03;;
64710;SDS011;51139;45.626;6.850;2023-07-22T14:15:17;3.88;;;2.35;;
64710;SDS011;51139;45.626;6.850;2023-07-22T14:17:42;2.83;;;1.83;;
64710;SDS011;51139;45.626;6.850;2023-07-22T14:20:09;3.10;;;2.00;;
64710;SDS011;51139;45.626;6.850;2023-07-22T14:22:36;4.68;;;2.47;;
64710;SDS011;51139;45.626;6.850;2023-07-22T14:25:02;3.95;;;2.30;;
64710;SDS011;51139;45.626;6.850;2023-07-22T14:27:27;3.15;;;2.15;;
64710;SDS011;51139;45.626;6.850;2023-07-22T14:29:52;3.67;;;2.30;;
64710;SDS011;51139;45.626;6.850;2023-07-22T14:32:18;3.33;;;1.90;;
64710;SDS011;51139;45.626;6.850;2023-07-22T14:34:43;3.53;;;2.08;;
64710;SDS011;51139;45.626;6.850;2023-07-22T14:37:08;3.78;;;2.00;;
64710;SDS011;51139;45.626;6.850;2023-07-22T14:39:34;3.38;;;2.08;;
64710;SDS011;51139;45.626;6.850;2023-07-22T14:41:59;2.92;;;1.80;;
64710;SDS011;51139;45.626;6.850;2023-07-22T14:44:25;2.85;;;1.92;;
64710;SDS011;51139;45.626;6.850;2023-07-22T14:46:51;2.75;;;1.88;;
64710;SDS011;51139;45.626;6.850;2023-07-22T14:49:16;3.25;;;2.10;;
64710;SDS011;51139;45.626;6.850;2023-07-22T14:51:41;3.42;;;2.05;;
64710;SDS011;51139;45.626;6.850;2023-07-22T14:54:07;3.40;;;2.10;;
64710;SDS011;51139;45.626;6.850;2023-07-22T14:56:33;2.75;;;1.88;;
64710;SDS011;51139;45.626;6.850;2023-07-22T14:58:59;3.78;;;2.00;;
64710;SDS011;51139;45.626;6.850;2023-07-22T15:01:24;2.72;;;1.75;;
64710;SDS011;51139;45.626;6.850;2023-07-22T15:03:50;3.58;;;2.08;;
64710;SDS011;51139;45.626;6.850;2023-07-22T15:06:15;4.90;;;3.38;;
64710;SDS011;51139;45.626;6.850;2023-07-22T15:08:40;3.42;;;2.25;;